Time;durP1;ratioP1;P1;durP2;ratioP2;P2;SDS_P1;SDS_P2;PMS_P1;PMS_P2;Temp;Humidity;BMP_temperature;BMP_pressure;BME280_temperature;BME280_humidity;BME280_pressure;Samples;Min_cycle;Max_cycle;Signal;HPM_P1;HPM_P2
2023/07/15 00:00:21;;;;;;;4.13;2.05;;;;;;;21.47;50.29;100153.50;5037795;28;20033;-62
2023/07/15 00:02:47;;;;;;;2.63;1.73;;;;;;;21.39;50.83;100155.78;5033191;28;20037;-62
2023/07/15 00:05:20;;;;;;;5.18;2.00;;;;;;;21.36;51.16;100153.34;5031158;28;20029;-62
2023/07/15 00:07:46;;;;;;;4.53;1.60;;;;;;;21.30;51.12;100151.94;5037428;28;20025;-63
2023/07/15 00:10:11;;;;;;;3.22;1.95;;;;;;;21.26;51.28;100151.28;5033741;28;20091;-62
2023/07/15 00:12:37;;;;;;;4.20;1.60;;;;;;;21.22;51.63;100152.38;5034414;28;20697;-62
2023/07/15 00:15:02;;;;;;;5.32;1.60;;;;;;;21.20;51.51;100151.66;5029732;28;20045;-62
2023/07/15 00:17:28;;;;;;;3.40;2.03;;;;;;;21.22;51.40;100152.38;5036134;28;20041;-62
2023/07/15 00:19:53;;;;;;;3.88;1.83;;;;;;;21.18;51.54;100156.16;5036676;28;20739;-62
2023/07/15 00:22:19;;;;;;;2.83;1.55;;;;;;;21.15;51.76;100156.34;5036478;28;20044;-63
2023/07/15 00:24:46;;;;;;;2.85;1.90;;;;;;;21.11;52.06;100156.63;5030906;28;20037;-63
2023/07/15 00:27:11;;;;;;;4.18;1.77;;;;;;;21.07;52.19;100161.25;5037365;28;20041;-61
2023/07/15 00:29:37;;;;;;;3.63;1.73;;;;;;;21.02;52.64;100163.28;5036983;28;20480;-61
2023/07/15 00:32:04;;;;;;;3.72;1.98;;;;;;;20.97;53.21;100170.63;5034629;28;20024;-61
2023/07/15 00:34:30;;;;;;;3.40;1.90;;;;;;;20.92;53.11;100159.53;5034099;28;20091;-61
2023/07/15 00:36:56;;;;;;;3.25;2.20;;;;;;;20.89;53.44;100159.72;5040410;28;20029;-61
2023/07/15 00:39:21;;;;;;;5.32;1.80;;;;;;;20.91;53.34;100152.59;5037543;28;20032;-61
2023/07/15 00:41:47;;;;;;;4.57;2.30;;;;;;;20.93;53.33;100153.34;5036980;28;20060;-61
2023/07/15 00:44:15;;;;;;;1.88;1.40;;;;;;;20.96;53.09;100150.53;5033288;28;20040;-61
2023/07/15 00:46:56;;;;;;;4.45;1.70;;;;;;;21.06;52.97;100150.81;5038219;28;20033;-61
2023/07/15 00:49:26;;;;;;;2.25;1.70;;;;;;;21.10;52.68;100154.94;5045698;28;20913;-61
2023/07/15 00:52:05;;;;;;;4.13;1.95;;;;;;;21.15;52.73;100151.09;5043349;28;20058;-61
2023/07/15 00:54:34;;;;;;;4.13;1.92;;;;;;;21.17;52.65;100146.59;5040559;28;20041;-61
2023/07/15 00:57:01;;;;;;;3.85;2.13;;;;;;;21.19;52.66;100144.69;5038157;28;20044;-61
2023/07/15 00:59:28;;;;;;;4.60;1.50;;;;;;;21.20;52.65;100151.66;5041698;28;20048;-61
2023/07/15 01:01:54;;;;;;;3.17;2.15;;;;;;;21.25;52.40;100138.25;5041461;28;20044;-61
2023/07/15 01:04:21;;;;;;;5.35;1.95;;;;;;;21.27;52.50;100133.72;5039253;28;20070;-61
2023/07/15 01:06:47;;;;;;;2.38;1.58;;;;;;;21.31;52.31;100134.38;5036669;28;20089;-61
2023/07/15 01:09:13;;;;;;;3.60;1.60;;;;;;;21.30;52.57;100130.91;5031976;28;20037;-61
2023/07/15 01:11:39;;;;;;;3.90;1.75;;;;;;;21.30;51.86;100120.38;5037839;28;20040;-61
2023/07/15 01:14:05;;;;;;;3.63;1.65;;;;;;;21.36;51.57;100113.91;5037233;28;20041;-61
2023/07/15 01:16:34;;;;;;;3.90;1.70;;;;;;;21.35;51.65;100113.03;5037458;28;20128;-61
2023/07/15 01:19:00;;;;;;;3.28;1.73;;;;;;;21.34;51.59;100107.91;5037742;28;20047;-61
2023/07/15 01:21:28;;;;;;;2.55;1.75;;;;;;;21.35;51.25;100104.31;5038012;28;20107;-61
2023/07/15 01:23:54;;;;;;;4.55;1.50;;;;;;;21.29;51.40;100100.28;5049317;28;20063;-61
2023/07/15 01:26:19;;;;;;;7.18;1.67;;;;;;;21.30;51.17;100098.50;5036516;28;20040;-61
2023/07/15 01:28:45;;;;;;;2.58;1.90;;;;;;;21.27;51.36;100099.56;5037026;28;20028;-61
2023/07/15 01:31:13;;;;;;;2.00;1.50;;;;;;;21.27;51.32;100097.78;5034061;28;20057;-62
2023/07/15 01:33:38;;;;;;;2.10;1.52;;;;;;;21.24;51.60;100095.34;5038075;28;20040;-61
2023/07/15 01:36:04;;;;;;;2.92;1.73;;;;;;;21.22;51.56;100099.81;5037084;28;20041;-61
2023/07/15 01:38:31;;;;;;;3.17;2.00;;;;;;;21.20;51.54;100099.09;5035262;28;20049;-61
2023/07/15 01:40:56;;;;;;;1.83;1.60;;;;;;;21.17;51.79;100101.91;5036250;28;20039;-61
2023/07/15 01:43:21;;;;;;;3.58;1.88;;;;;;;21.15;51.85;100108.19;5038274;28;20041;-61
2023/07/15 01:45:47;;;;;;;2.47;1.38;;;;;;;21.13;51.99;100110.09;5033259;28;20123;-62
2023/07/15 01:48:12;;;;;;;3.13;1.65;;;;;;;21.13;52.29;100105.69;5037185;28;20120;-61
2023/07/15 01:50:39;;;;;;;2.85;1.80;;;;;;;21.12;52.24;100106.59;5037365;28;20810;-61
2023/07/15 01:53:05;;;;;;;5.80;1.95;;;;;;;21.14;52.22;100104.72;5040387;28;20692;-61
2023/07/15 01:55:30;;;;;;;3.20;2.15;;;;;;;21.23;52.53;100101.53;5037399;28;20037;-61
2023/07/15 01:57:56;;;;;;;2.53;1.80;;;;;;;21.23;52.43;100100.66;5038472;28;20043;-61
2023/07/15 02:00:21;;;;;;;3.08;1.88;;;;;;;21.16;52.60;100115.16;5037984;28;20458;-62
2023/07/15 02:02:47;;;;;;;4.20;2.03;;;;;;;21.10;52.95;100105.03;5039132;28;20064;-61
2023/07/15 02:05:12;;;;;;;2.08;1.67;;;;;;;21.05;53.54;100115.78;5039451;28;20075;-61
2023/07/15 02:07:38;;;;;;;2.67;1.83;;;;;;;21.03;53.34;100114.22;5042839;28;20067;-61
2023/07/15 02:10:04;;;;;;;3.50;1.60;;;;;;;21.04;53.18;100103.63;5036060;28;20034;-61
2023/07/15 02:12:29;;;;;;;3.08;1.70;;;;;;;21.04;53.09;100105.41;5038445;28;20594;-61
2023/07/15 02:14:54;;;;;;;4.32;1.90;;;;;;;20.99;53.27;100108.28;5038367;28;20041;-61
2023/07/15 02:17:23;;;;;;;4.35;1.80;;;;;;;20.99;53.36;100113.53;5040678;28;20612;-61
2023/07/15 02:19:51;;;;;;;2.22;1.40;;;;;;;20.97;53.24;100104.94;5040060;28;20040;-61
2023/07/15 02:22:20;;;;;;;3.97;1.70;;;;;;;20.97;53.33;100102.28;5040363;28;20036;-61
2023/07/15 02:24:47;;;;;;;2.35;1.67;;;;;;;21.01;53.06;100100.34;5039087;28;20095;-61
2023/07/15 02:27:12;;;;;;;3.00;1.48;;;;;;;20.97;53.01;100097.03;5042398;28;20037;-62
2023/07/15 02:29:37;;;;;;;3.53;2.10;;;;;;;21.03;52.93;100086.16;5040069;28;20566;-61
2023/07/15 02:32:04;;;;;;;1.92;1.60;;;;;;;21.01;52.87;100089.81;5036785;28;20075;-61
2023/07/15 02:34:29;;;;;;;2.35;1.45;;;;;;;21.00;52.94;100081.09;5040823;28;20237;-61
2023/07/15 02:36:55;;;;;;;3.25;1.60;;;;;;;21.00;52.78;100078.47;5040447;28;20556;-61
2023/07/15 02:39:20;;;;;;;4.72;1.73;;;;;;;21.02;52.79;100076.56;5042020;28;20037;-62
2023/07/15 02:41:46;;;;;;;2.45;1.45;;;;;;;21.07;52.25;100068.41;5038560;28;20033;-61
2023/07/15 02:44:12;;;;;;;2.85;1.60;;;;;;;21.14;52.06;100064.44;5033873;28;20613;-61
2023/07/15 02:46:37;;;;;;;3.38;1.63;;;;;;;21.25;51.59;100051.50;5038926;28;20044;-62
2023/07/15 02:49:03;;;;;;;3.08;1.70;;;;;;;21.23;51.58;100056.84;5039881;28;20522;-61
2023/07/15 02:51:28;;;;;;;2.15;1.80;;;;;;;21.26;51.75;100046.13;5040910;28;20072;-61
2023/07/15 02:53:54;;;;;;;2.92;1.58;;;;;;;21.32;51.34;100046.66;5037337;28;20064;-61
2023/07/15 02:56:19;;;;;;;3.45;1.52;;;;;;;21.31;51.74;100050.25;5037254;28;20394;-62
2023/07/15 02:58:44;;;;;;;6.15;2.00;;;;;;;21.36;51.43;100048.16;5035377;28;20037;-61
2023/07/15 03:01:10;;;;;;;3.78;1.60;;;;;;;21.39;51.40;100042.72;5038193;28;20798;-62
2023/07/15 03:03:38;;;;;;;3.53;1.30;;;;;;;21.37;51.32;100050.72;5036167;28;20674;-61
2023/07/15 03:06:04;;;;;;;4.53;1.80;;;;;;;21.39;51.52;100047.97;5036272;28;20072;-61
2023/07/15 03:08:29;;;;;;;6.72;1.70;;;;;;;21.39;51.60;100055.84;5036909;28;20144;-61
2023/07/15 03:10:55;;;;;;;3.40;1.67;;;;;;;21.36;52.07;100061.31;5036071;28;20039;-61
2023/07/15 03:13:21;;;;;;;2.33;1.27;;;;;;;21.33;51.96;100058.88;5038631;28;20052;-61
2023/07/15 03:15:47;;;;;;;3.50;1.73;;;;;;;21.30;51.97;100062.56;5033742;28;20162;-62
2023/07/15 03:18:12;;;;;;;3.22;1.50;;;;;;;21.29;51.88;100063.47;5038732;28;20037;-61
2023/07/15 03:20:38;;;;;;;3.58;1.48;;;;;;;21.25;52.13;100054.13;5038542;28;20040;-61
2023/07/15 03:23:03;;;;;;;5.57;1.70;;;;;;;21.22;52.20;100057.75;5032085;28;20447;-62
2023/07/15 03:25:29;;;;;;;3.45;1.50;;;;;;;21.21;52.62;100068.38;5035790;28;20738;-61
2023/07/15 03:27:55;;;;;;;2.70;1.58;;;;;;;21.15;52.82;100061.75;5031688;28;20041;-61
2023/07/15 03:30:21;;;;;;;3.22;1.90;;;;;;;21.13;52.81;100066.25;5031348;28;20519;-61
2023/07/15 03:32:47;;;;;;;4.35;1.60;;;;;;;21.12;52.89;100063.72;5035409;28;20048;-61
2023/07/15 03:35:12;;;;;;;3.35;1.70;;;;;;;21.05;53.19;100067.66;5036236;28;20029;-61
2023/07/15 03:37:42;;;;;;;3.78;1.60;;;;;;;21.04;53.19;100079.13;5038067;28;20032;-62
2023/07/15 03:40:08;;;;;;;4.43;1.88;;;;;;;21.01;53.57;100076.69;5038291;28;20149;-62
2023/07/15 03:42:35;;;;;;;3.10;1.60;;;;;;;20.99;53.28;100079.38;5037859;28;20033;-63
2023/07/15 03:45:00;;;;;;;3.90;1.50;;;;;;;21.00;53.36;100082.88;5033332;28;20099;-63
2023/07/15 03:47:26;;;;;;;3.22;1.95;;;;;;;21.02;53.39;100080.97;5036938;28;20688;-63
2023/07/15 03:49:51;;;;;;;4.40;2.05;;;;;;;21.03;53.60;100085.31;5036417;28;20030;-62
2023/07/15 03:52:17;;;;;;;6.15;1.90;;;;;;;21.01;53.56;100082.78;5037280;28;20049;-62
2023/07/15 03:54:43;;;;;;;3.20;1.90;;;;;;;21.03;53.55;100087.94;5033381;28;20037;-63
2023/07/15 03:57:09;;;;;;;2.35;1.63;;;;;;;21.05;53.61;100075.53;5029814;28;20047;-62
2023/07/15 03:59:34;;;;;;;4.90;1.70;;;;;;;21.04;53.58;100079.13;5037682;28;20041;-62
2023/07/15 04:01:59;;;;;;;4.63;1.75;;;;;;;21.08;53.33;100080.59;5032224;28;20037;-63
2023/07/15 04:04:25;;;;;;;4.88;1.80;;;;;;;21.10;53.78;100078.75;5033625;28;20124;-62
2023/07/15 04:06:50;;;;;;;2.72;1.40;;;;;;;21.12;53.75;100087.38;5034423;28;20041;-62
2023/07/15 04:09:16;;;;;;;2.47;1.60;;;;;;;21.14;54.09;100083.69;5035926;28;20036;-62
2023/07/15 04:11:43;;;;;;;5.22;1.75;;;;;;;21.19;54.08;100078.97;5036818;28;20108;-62
2023/07/15 04:14:08;;;;;;;3.42;1.58;;;;;;;21.22;54.12;100067.47;5037966;28;20059;-62
2023/07/15 04:16:34;;;;;;;3.08;1.38;;;;;;;21.26;54.09;100075.03;5040797;28;20440;-62
2023/07/15 04:18:59;;;;;;;2.70;1.83;;;;;;;21.29;54.50;100079.25;5039091;28;20057;-62
2023/07/15 04:21:25;;;;;;;3.17;1.95;;;;;;;21.33;54.25;100075.50;5042211;28;20025;-62
2023/07/15 04:23:52;;;;;;;2.80;1.90;;;;;;;21.38;54.10;100073.41;5036388;28;20087;-62
2023/07/15 04:26:24;;;;;;;2.83;1.90;;;;;;;21.46;54.00;100073.75;5031111;28;20037;-62
2023/07/15 04:28:50;;;;;;;2.28;1.50;;;;;;;21.55;53.46;100064.47;5041209;28;20560;-62
2023/07/15 04:31:16;;;;;;;3.65;1.70;;;;;;;21.61;53.57;100069.38;5036600;28;20041;-62
2023/07/15 04:33:46;;;;;;;3.10;1.80;;;;;;;21.67;53.05;100069.78;5034502;28;20037;-62
2023/07/15 04:36:12;;;;;;;2.83;1.75;;;;;;;21.74;52.97;100073.72;5034768;28;20044;-62
2023/07/15 04:38:38;;;;;;;3.13;1.75;;;;;;;21.79;53.05;100078.66;5034764;28;20041;-62
2023/07/15 04:41:03;;;;;;;3.72;1.60;;;;;;;21.83;52.81;100080.16;5036151;28;20036;-62
2023/07/15 04:43:29;;;;;;;2.58;1.60;;;;;;;21.93;52.19;100072.50;5036374;28;21067;-62
2023/07/15 04:45:54;;;;;;;3.35;1.73;;;;;;;21.97;52.12;100066.13;5038644;28;20161;-63
2023/07/15 04:48:20;;;;;;;3.05;1.55;;;;;;;22.01;52.23;100060.53;5038855;28;20403;-62
2023/07/15 04:50:47;;;;;;;1.83;1.50;;;;;;;22.03;52.38;100065.69;5039738;28;20045;-63
2023/07/15 04:53:13;;;;;;;2.72;1.90;;;;;;;22.05;52.54;100072.56;5043051;28;20090;-62
2023/07/15 04:55:39;;;;;;;1.92;1.52;;;;;;;22.09;52.56;100074.03;5036233;28;20054;-62
2023/07/15 04:58:05;;;;;;;4.07;1.40;;;;;;;22.14;52.75;100079.84;5035348;28;20041;-62
2023/07/15 05:00:31;;;;;;;3.95;1.88;;;;;;;22.18;52.84;100070.78;5037916;28;20049;-62
2023/07/15 05:02:56;;;;;;;2.05;1.35;;;;;;;22.22;52.76;100076.69;5041303;28;20063;-62
2023/07/15 05:05:22;;;;;;;2.30;1.70;;;;;;;22.26;53.09;100084.25;5037027;28;20143;-62
2023/07/15 05:07:49;;;;;;;4.03;1.75;;;;;;;22.32;53.00;100077.75;5035582;28;20029;-62
2023/07/15 05:10:15;;;;;;;2.05;1.60;;;;;;;22.35;53.18;100081.00;5033374;28;20070;-62
2023/07/15 05:12:41;;;;;;;3.17;1.88;;;;;;;22.41;53.65;100094.75;5042354;28;20037;-62
2023/07/15 05:15:07;;;;;;;2.38;1.77;;;;;;;22.44;53.46;100098.03;5036265;28;20052;-62
2023/07/15 05:17:32;;;;;;;5.72;1.90;;;;;;;22.47;53.42;100095.19;5038960;28;20522;-62
2023/07/15 05:19:58;;;;;;;3.83;2.10;;;;;;;22.53;53.05;100100.03;5036355;28;20033;-62
2023/07/15 05:22:23;;;;;;;7.55;1.92;;;;;;;22.64;52.84;100094.03;5038773;28;20037;-62
2023/07/15 05:24:49;;;;;;;3.83;2.17;;;;;;;22.74;52.68;100081.94;5040058;28;20043;-63
2023/07/15 05:27:14;;;;;;;2.78;1.85;;;;;;;22.80;52.75;100079.69;5036856;28;20037;-62
2023/07/15 05:29:40;;;;;;;2.13;1.42;;;;;;;22.86;52.78;100079.25;5038390;28;20065;-62
2023/07/15 05:32:06;;;;;;;3.40;2.00;;;;;;;22.99;51.90;100062.59;5037977;28;20029;-62
2023/07/15 05:34:31;;;;;;;5.78;2.00;;;;;;;23.10;51.02;100055.59;5041022;28;20041;-62
2023/07/15 05:36:56;;;;;;;2.95;2.03;;;;;;;23.16;51.25;100052.53;5037007;28;20036;-62
2023/07/15 05:39:22;;;;;;;2.45;1.65;;;;;;;23.28;51.61;100040.28;5036850;28;20749;-62
2023/07/15 05:41:47;;;;;;;2.63;1.35;;;;;;;23.44;50.94;100023.25;5036876;28;20056;-62
2023/07/15 05:44:12;;;;;;;2.88;1.55;;;;;;;23.58;50.71;100013.47;5036142;28;20117;-62
2023/07/15 05:46:38;;;;;;;4.78;1.58;;;;;;;23.62;50.94;100015.78;5032619;28;20123;-60
2023/07/15 05:49:04;;;;;;;3.00;1.70;;;;;;;23.66;50.76;100026.97;5034213;28;20120;-60
2023/07/15 05:51:30;;;;;;;4.47;1.80;;;;;;;23.70;50.74;100045.09;5035821;28;20044;-60
2023/07/15 05:53:56;;;;;;;4.47;1.60;;;;;;;23.78;50.98;100050.63;5037395;28;20053;-60
2023/07/15 05:56:21;;;;;;;3.22;1.45;;;;;;;23.96;50.74;100043.16;5035035;28;20127;-60
2023/07/15 05:58:46;;;;;;;2.53;1.63;;;;;;;24.20;49.15;100014.06;5039784;28;20363;-60
2023/07/15 06:01:12;;;;;;;2.67;1.77;;;;;;;24.44;49.17;100012.19;5038256;28;20135;-60
2023/07/15 06:03:38;;;;;;;3.33;1.80;;;;;;;24.68;48.80;100012.06;5033796;28;20074;-62
2023/07/15 06:06:03;;;;;;;5.43;2.50;;;;;;;24.90;47.84;99999.75;5032150;28;20140;-61
2023/07/15 06:08:29;;;;;;;3.97;2.13;;;;;;;25.15;47.28;99984.53;5033221;28;20041;-61
2023/07/15 06:10:54;;;;;;;6.00;1.70;;;;;;;25.44;46.87;99994.44;5038626;28;20871;-61
2023/07/15 06:13:20;;;;;;;5.63;2.00;;;;;;;25.59;45.96;99987.06;5032534;28;20562;-60
2023/07/15 06:15:52;;;;;;;4.25;1.70;;;;;;;25.57;46.31;99986.34;5032763;28;20045;-60
2023/07/15 06:18:17;;;;;;;2.50;1.52;;;;;;;25.52;46.49;99997.34;5033035;28;20152;-61
2023/07/15 06:20:43;;;;;;;3.63;1.63;;;;;;;25.38;46.29;100010.78;5038356;28;20040;-60
2023/07/15 06:23:09;;;;;;;3.45;2.00;;;;;;;25.34;46.63;100008.53;5037813;28;20036;-60
2023/07/15 06:25:36;;;;;;;2.67;1.50;;;;;;;25.35;47.53;100018.16;5033943;28;20520;-60
2023/07/15 06:28:02;;;;;;;2.45;1.63;;;;;;;25.40;47.24;100011.56;5031718;28;20439;-60
2023/07/15 06:30:27;;;;;;;2.88;1.38;;;;;;;25.44;47.49;100010.31;5034048;28;20068;-60
2023/07/15 06:32:53;;;;;;;5.38;1.65;;;;;;;25.41;47.94;100023.81;5032340;28;20041;-61
2023/07/15 06:35:18;;;;;;;7.13;1.80;;;;;;;25.43;48.58;100037.78;5030921;28;20032;-60
2023/07/15 06:37:48;;;;;;;5.20;1.98;;;;;;;25.52;47.76;100017.66;5031086;28;20028;-60
2023/07/15 06:40:17;;;;;;;5.10;2.10;;;;;;;25.59;47.46;100024.09;5020132;28;20044;-60
2023/07/15 06:42:44;;;;;;;5.18;2.17;;;;;;;25.66;47.57;100021.81;5028759;28;20104;-60
2023/07/15 06:45:10;;;;;;;5.70;2.22;;;;;;;25.64;47.63;100021.94;5026093;28;20851;-60
2023/07/15 06:47:35;;;;;;;4.88;2.00;;;;;;;25.40;47.75;100024.78;5031517;28;20048;-61
2023/07/15 06:50:01;;;;;;;3.45;1.80;;;;;;;25.29;47.63;100024.78;5030607;28;20103;-61
2023/07/15 06:52:26;;;;;;;4.68;1.83;;;;;;;25.19;48.59;100029.13;5030465;28;20067;-60
2023/07/15 06:54:52;;;;;;;4.88;1.85;;;;;;;25.20;48.69;100048.50;5026244;28;20052;-60
2023/07/15 06:57:18;;;;;;;3.40;1.92;;;;;;;25.21;49.26;100051.00;5032615;28;20052;-60
2023/07/15 06:59:43;;;;;;;4.13;1.95;;;;;;;25.20;48.82;100043.22;5026946;28;20761;-60
2023/07/15 07:02:08;;;;;;;6.55;2.20;;;;;;;25.17;49.54;100046.94;5032617;28;20057;-60
2023/07/15 07:04:34;;;;;;;8.65;1.67;;;;;;;25.18;49.21;100045.13;5031123;28;20462;-60
2023/07/15 07:06:59;;;;;;;6.50;1.65;;;;;;;25.13;49.53;100060.53;5031020;28;20738;-60
2023/07/15 07:09:24;;;;;;;4.75;1.98;;;;;;;25.07;50.00;100069.78;5027149;28;20037;-60
2023/07/15 07:11:50;;;;;;;4.65;2.20;;;;;;;25.01;50.25;100078.19;5028502;28;20044;-60
2023/07/15 07:14:16;;;;;;;4.15;2.17;;;;;;;24.97;49.59;100066.16;5029307;28;20052;-60
2023/07/15 07:16:41;;;;;;;5.78;1.88;;;;;;;24.96;49.54;100056.56;5036602;28;20039;-60
2023/07/15 07:19:06;;;;;;;4.03;1.90;;;;;;;24.88;49.40;100070.38;5032113;28;20052;-60
2023/07/15 07:21:32;;;;;;;4.57;2.42;;;;;;;24.74;50.69;100096.22;5033669;28;20045;-60
2023/07/15 07:23:57;;;;;;;3.83;1.85;;;;;;;24.57;50.79;100102.78;5032899;28;20795;-60
2023/07/15 07:26:23;;;;;;;3.08;1.90;;;;;;;24.46;50.77;100093.00;5031266;28;20033;-60
2023/07/15 07:28:48;;;;;;;4.43;1.90;;;;;;;24.42;50.56;100088.94;5031553;28;20884;-60
2023/07/15 07:31:15;;;;;;;5.55;1.83;;;;;;;24.31;51.49;100117.94;5032742;28;20694;-61
2023/07/15 07:33:41;;;;;;;4.45;2.13;;;;;;;24.10;55.44;100153.91;5034990;28;20068;-60
2023/07/15 07:36:07;;;;;;;5.72;1.67;;;;;;;23.80;56.68;100183.34;5037766;28;20094;-60
2023/07/15 07:38:32;;;;;;;4.47;1.98;;;;;;;23.52;58.41;100227.63;5036880;28;20406;-62
2023/07/15 07:41:05;;;;;;;5.30;2.35;;;;;;;23.26;59.65;100226.81;5032801;28;20076;-62
2023/07/15 07:43:30;;;;;;;6.68;2.28;;;;;;;22.91;63.24;100213.38;5031466;28;20037;-62
2023/07/15 07:45:56;;;;;;;5.50;2.55;;;;;;;22.72;67.18;100211.13;5033578;28;20044;-62
2023/07/15 07:48:21;;;;;;;9.73;3.42;;;;;;;22.34;69.20;100182.03;5029784;28;20037;-62
2023/07/15 07:50:46;;;;;;;8.30;2.53;;;;;;;21.98;72.86;100175.69;5034847;28;20086;-62
2023/07/15 07:53:12;;;;;;;5.75;2.65;;;;;;;21.75;73.99;100196.44;5037239;28;20040;-62
2023/07/15 07:55:38;;;;;;;4.13;2.50;;;;;;;21.58;76.32;100222.09;5029664;28;20036;-61
2023/07/15 07:58:03;;;;;;;4.47;2.55;;;;;;;21.45;78.59;100226.38;5033485;28;20505;-62
2023/07/15 08:00:29;;;;;;;5.95;3.22;;;;;;;21.34;80.63;100236.72;5029577;28;20037;-63
2023/07/15 08:02:54;;;;;;;9.23;3.20;;;;;;;21.23;83.21;100261.03;5029112;28;20047;-62
2023/07/15 08:05:19;;;;;;;7.30;3.88;;;;;;;21.15;84.79;100274.63;5034112;28;20101;-62
2023/07/15 08:07:45;;;;;;;11.55;4.32;;;;;;;21.08;86.94;100275.06;5036068;28;20040;-61
2023/07/15 08:10:10;;;;;;;7.10;2.80;;;;;;;21.03;82.25;100245.59;5032866;28;20037;-62
2023/07/15 08:12:35;;;;;;;5.50;2.78;;;;;;;20.82;85.19;100250.34;5032683;28;20037;-62
2023/07/15 08:15:01;;;;;;;7.43;2.50;;;;;;;20.71;86.16;100247.50;5031712;28;20098;-62
2023/07/15 08:17:26;;;;;;;8.27;2.42;;;;;;;20.62;87.42;100234.88;5032263;28;20152;-63
2023/07/15 08:19:52;;;;;;;3.90;2.47;;;;;;;20.57;87.96;100232.50;5037261;28;20043;-62
2023/07/15 08:22:17;;;;;;;5.95;2.50;;;;;;;20.51;90.08;100239.91;5046440;28;20044;-62
2023/07/15 08:24:43;;;;;;;5.30;2.30;;;;;;;20.50;89.64;100256.56;5034963;28;20048;-64
2023/07/15 08:27:09;;;;;;;4.60;2.65;;;;;;;20.48;89.94;100261.09;5030717;28;20156;-63
2023/07/15 08:29:34;;;;;;;6.13;2.50;;;;;;;20.49;91.46;100254.88;5035341;28;20712;-63
2023/07/15 08:32:00;;;;;;;4.85;2.60;;;;;;;20.51;91.98;100232.84;5029965;28;20029;-64
2023/07/15 08:34:25;;;;;;;5.03;3.00;;;;;;;20.48;93.09;100258.47;5033466;28;20047;-63
2023/07/15 08:36:51;;;;;;;3.42;2.75;;;;;;;20.40;92.88;100258.88;5033011;28;20350;-64
2023/07/15 08:39:16;;;;;;;4.93;3.08;;;;;;;20.43;93.99;100271.81;5029599;28;20029;-64
2023/07/15 08:41:42;;;;;;;5.20;3.15;;;;;;;20.50;95.61;100293.34;5027528;28;20043;-65
2023/07/15 08:44:07;;;;;;;9.02;3.15;;;;;;;20.50;95.27;100290.72;5025258;28;20032;-65
2023/07/15 08:46:33;;;;;;;6.47;3.70;;;;;;;20.48;96.40;100277.66;5030160;28;20416;-65
2023/07/15 08:49:00;;;;;;;7.80;3.13;;;;;;;20.44;96.75;100277.94;5034031;28;20037;-65
2023/07/15 08:51:30;;;;;;;8.02;4.40;;;;;;;20.43;98.23;100286.72;5038542;28;20033;-65
2023/07/15 08:53:56;;;;;;;6.95;3.60;;;;;;;20.38;98.16;100299.28;5034755;28;20032;-65
2023/07/15 08:56:24;;;;;;;6.57;3.60;;;;;;;20.39;98.64;100298.34;5038934;28;20036;-65
2023/07/15 08:58:49;;;;;;;5.68;3.58;;;;;;;20.40;99.65;100311.38;5040866;28;20036;-65
2023/07/15 09:01:15;;;;;;;9.40;3.60;;;;;;;20.37;99.67;100313.31;5044455;28;20521;-65
2023/07/15 09:03:40;;;;;;;7.20;3.13;;;;;;;20.35;100.00;100323.91;5037613;28;20037;-65
2023/07/15 09:06:07;;;;;;;4.07;3.58;;;;;;;20.34;100.00;100330.09;5038927;28;20191;-66
2023/07/15 09:08:33;;;;;;;5.97;3.58;;;;;;;20.30;99.45;100330.38;5034981;28;20033;-65
2023/07/15 09:10:59;;;;;;;6.75;3.70;;;;;;;20.25;99.96;100342.88;5040804;28;20059;-65
2023/07/15 09:13:27;;;;;;;6.30;3.17;;;;;;;20.23;98.42;100335.09;5033157;28;20083;-63
2023/07/15 09:15:57;;;;;;;7.03;3.83;;;;;;;20.18;100.00;100360.75;5034402;28;20047;-63
2023/07/15 09:18:23;;;;;;;11.60;4.55;;;;;;;20.15;100.00;100355.66;5037013;28;20740;-63
2023/07/15 09:20:49;;;;;;;9.80;3.20;;;;;;;20.13;100.00;100352.25;5045962;28;20044;-63
2023/07/15 09:23:16;;;;;;;5.40;3.50;;;;;;;20.15;100.00;100330.28;5036140;28;20025;-65
2023/07/15 09:25:54;;;;;;;5.05;3.20;;;;;;;20.16;100.00;100313.59;5034927;28;20021;-63
2023/07/15 09:28:20;;;;;;;5.85;3.75;;;;;;;20.16;100.00;100317.97;5028282;28;20033;-63
2023/07/15 09:30:46;;;;;;;4.72;3.30;;;;;;;20.17;100.00;100307.41;5032011;28;20037;-64
2023/07/15 09:33:35;;;;;;;4.20;3.28;;;;;;;20.20;100.00;100305.53;5028131;28;20044;-63
2023/07/15 09:36:01;;;;;;;4.63;3.38;;;;;;;20.22;100.00;100309.78;5036383;28;20048;-63
2023/07/15 09:38:36;;;;;;;5.03;3.35;;;;;;;20.27;100.00;100297.25;5029471;28;20052;-63
2023/07/15 09:41:02;;;;;;;5.32;3.92;;;;;;;20.36;100.00;100286.25;5036381;28;20564;-63
2023/07/15 09:43:47;;;;;;;9.98;3.50;;;;;;;20.38;100.00;100259.91;5035078;28;20128;-63
2023/07/15 09:46:17;;;;;;;6.47;3.30;;;;;;;20.40;100.00;100255.41;5032690;28;20097;-64
2023/07/15 09:48:50;;;;;;;5.80;3.63;;;;;;;20.44;100.00;100257.78;5034091;28;20037;-63
2023/07/15 09:51:17;;;;;;;6.47;3.78;;;;;;;20.49;100.00;100257.50;5036937;28;20053;-63
2023/07/15 09:53:48;;;;;;;4.68;3.17;;;;;;;20.46;100.00;100255.91;5040866;28;20033;-63
2023/07/15 09:56:17;;;;;;;6.07;3.50;;;;;;;20.53;100.00;100259.03;5035959;28;20033;-64
2023/07/15 09:58:46;;;;;;;6.50;3.63;;;;;;;20.65;100.00;100240.78;5045373;28;20044;-65
2023/07/15 10:01:33;;;;;;;9.48;4.35;;;;;;;20.76;100.00;100244.59;5043098;28;20091;-64
2023/07/15 10:04:24;;;;;;;8.07;3.60;;;;;;;20.77;100.00;100234.00;5036615;28;20029;-65
2023/07/15 10:06:53;;;;;;;7.80;4.25;;;;;;;20.82;100.00;100234.56;5034291;28;20091;-64
2023/07/15 10:09:19;;;;;;;3.75;3.25;;;;;;;20.82;99.67;100231.09;5038780;28;20041;-64
2023/07/15 10:11:47;;;;;;;4.28;3.63;;;;;;;20.91;100.00;100236.66;5036872;28;20589;-64
2023/07/15 10:14:14;;;;;;;9.00;3.78;;;;;;;20.92;100.00;100254.13;5036331;28;20068;-64
2023/07/15 10:16:40;;;;;;;5.28;3.45;;;;;;;20.94;100.00;100262.75;5035585;28;20106;-64
2023/07/15 10:19:40;;;;;;;6.93;4.32;;;;;;;20.95;100.00;100271.50;5041467;28;20090;-64
2023/07/15 10:22:07;;;;;;;5.28;4.20;;;;;;;20.98;100.00;100281.81;5044701;28;20036;-64
2023/07/15 10:24:33;;;;;;;6.22;4.63;;;;;;;20.96;100.00;100288.94;5033519;28;20033;-64
2023/07/15 10:27:05;;;;;;;7.32;4.20;;;;;;;20.96;100.00;100283.69;5036283;28;20102;-64
2023/07/15 10:29:30;;;;;;;12.07;4.72;;;;;;;21.02;100.00;100280.69;5033552;28;20094;-64
2023/07/15 10:32:15;;;;;;;6.43;4.57;;;;;;;21.11;100.00;100283.63;5036876;28;20786;-64
2023/07/15 10:34:42;;;;;;;;;;;;;;;21.23;100.00;100300.44;5037104;28;20082;-64
2023/07/15 10:37:10;;;;;;;9.32;4.30;;;;;;;21.29;100.00;100284.31;5031661;28;19960;-64
2023/07/15 10:39:35;;;;;;;5.93;3.95;;;;;;;21.40;100.00;100279.28;5026534;28;20403;-64
2023/07/15 10:42:08;;;;;;;7.20;4.57;;;;;;;21.64;98.98;100279.59;5040329;28;20048;-64
2023/07/15 10:44:46;;;;;;;5.85;4.38;;;;;;;21.85;96.43;100278.25;5037093;28;20033;-65
2023/07/15 10:47:15;;;;;;;7.97;4.65;;;;;;;22.07;95.48;100280.38;5037929;28;20039;-65
2023/07/15 10:49:41;;;;;;;8.65;4.22;;;;;;;22.18;94.30;100284.03;5034298;28;20033;-65
2023/07/15 10:52:07;;;;;;;5.72;4.38;;;;;;;22.28;93.52;100298.28;5037569;28;20045;-65
2023/07/15 10:54:37;;;;;;;7.15;4.28;;;;;;;22.39;96.07;100308.16;5029178;28;20040;-65
2023/07/15 10:57:14;;;;;;;6.00;3.90;;;;;;;22.31;94.92;100300.75;5036001;28;20857;-65
2023/07/15 10:59:44;;;;;;;5.25;3.67;;;;;;;22.32;95.94;100304.22;5031654;28;20053;-66
2023/07/15 11:02:11;;;;;;;6.47;4.30;;;;;;;22.32;95.12;100286.59;5042819;28;20025;-65
2023/07/15 11:04:38;;;;;;;6.20;4.70;;;;;;;22.38;95.33;100274.91;5045597;28;20032;-66
2023/07/15 11:07:06;;;;;;;8.52;4.18;;;;;;;22.42;95.57;100259.72;5047498;28;20156;-66
2023/07/15 11:09:36;;;;;;;5.68;4.28;;;;;;;22.51;95.72;100249.44;5037171;28;20579;-65
2023/07/15 11:12:05;;;;;;;9.30;5.13;;;;;;;22.63;95.69;100258.31;5034072;28;20033;-65
2023/07/15 11:14:31;;;;;;;6.43;3.70;;;;;;;22.76;95.71;100261.84;5034399;28;20100;-64
2023/07/15 11:16:59;;;;;;;8.85;4.75;;;;;;;22.79;95.04;100257.22;5037887;28;20515;-65
2023/07/15 11:19:27;;;;;;;5.65;4.45;;;;;;;22.87;94.65;100257.53;5037775;28;20076;-65
2023/07/15 11:21:54;;;;;;;4.85;3.75;;;;;;;22.98;91.40;100237.53;5033204;28;20041;-65